createdAt,value
2023-05-11T00:00:48.621Z,0.40
2023-05-11T00:05:50.434Z,0.70
2023-05-11T00:10:52.179Z,0.60
2023-05-11T00:15:53.852Z,0.47
2023-05-11T00:20:56.819Z,0.50
2023-05-11T00:25:58.408Z,0.35
2023-05-11T00:31:00.034Z,0.60
2023-05-11T00:36:03.422Z,0.60
2023-05-11T00:41:04.988Z,0.73
2023-05-11T00:46:07.109Z,0.50
2023-05-11T00:51:08.954Z,0.50
2023-05-11T00:56:10.633Z,0.50
2023-05-11T01:01:12.385Z,0.50
2023-05-11T01:06:53.320Z,0.68
2023-05-11T01:12:08.299Z,0.50
2023-05-11T01:17:18.456Z,0.30
2023-05-11T01:22:38.004Z,0.70
2023-05-11T01:27:56.745Z,0.40
2023-05-11T01:33:03.366Z,0.40
2023-05-11T01:38:10.334Z,0.68
2023-05-11T01:43:20.519Z,0.65
2023-05-11T01:48:25.879Z,0.50
2023-05-11T01:53:33.272Z,0.43
2023-05-11T01:58:38.720Z,0.77
2023-05-11T02:03:42.902Z,0.70
2023-05-11T02:08:46.030Z,0.70
2023-05-11T02:13:49.422Z,0.60
2023-05-11T02:18:52.776Z,0.77
2023-05-11T02:23:56.919Z,0.70
2023-05-11T02:28:58.546Z,0.90
2023-05-11T02:34:07.069Z,0.80
2023-05-11T02:39:12.712Z,1.20
2023-05-11T02:44:18.321Z,0.95
2023-05-11T02:49:25.396Z,0.77
2023-05-11T02:54:29.144Z,0.85
2023-05-11T02:59:31.388Z,1.10
2023-05-11T03:04:34.690Z,1.00
2023-05-11T03:09:38.001Z,1.30
2023-05-11T03:14:40.323Z,1.40
2023-05-11T03:19:43.081Z,1.30
2023-05-11T03:24:46.087Z,1.42
2023-05-11T03:29:50.813Z,1.08
2023-05-11T03:34:52.692Z,1.65
2023-05-11T03:39:58.841Z,1.60
2023-05-11T03:45:06.006Z,1.67
2023-05-11T03:50:09.185Z,1.88
2023-05-11T03:55:11.304Z,1.73
2023-05-11T04:00:13.806Z,1.70
2023-05-11T04:05:19.252Z,1.90
2023-05-11T04:10:22.738Z,1.95
2023-05-11T04:15:24.335Z,2.30
2023-05-11T04:20:26.017Z,3.08
2023-05-11T04:25:27.637Z,3.15
2023-05-11T04:30:29.321Z,5.70
2023-05-11T04:35:31.825Z,3.85
2023-05-11T04:40:36.626Z,5.90
2023-05-11T04:45:38.415Z,8.73
2023-05-11T04:50:40.152Z,5.47
2023-05-11T04:55:42.687Z,3.90
2023-05-11T05:00:44.558Z,6.13
2023-05-11T05:05:47.683Z,5.43
2023-05-11T05:10:49.396Z,4.70
2023-05-11T05:15:51.133Z,5.55
2023-05-11T05:20:53.043Z,7.95
2023-05-11T05:25:54.743Z,4.05
2023-05-11T05:30:57.003Z,2.60
2023-05-11T05:36:01.496Z,4.10
2023-05-11T05:41:03.642Z,3.03
2023-05-11T05:46:09.644Z,2.28
2023-05-11T05:51:11.595Z,2.00
2023-05-11T05:56:21.849Z,1.98
2023-05-11T06:01:32.893Z,2.30
2023-05-11T06:06:34.627Z,1.77
2023-05-11T06:11:36.678Z,2.15
2023-05-11T06:16:39.027Z,1.73
2023-05-11T06:21:42.933Z,2.05
2023-05-11T06:26:44.686Z,2.00
2023-05-11T06:31:46.413Z,2.03
2023-05-11T06:36:48.817Z,1.98
2023-05-11T06:41:53.578Z,1.67
2023-05-11T06:46:56.701Z,1.83
2023-05-11T06:51:58.341Z,2.20
2023-05-11T06:56:59.991Z,2.42
2023-05-11T07:02:01.658Z,2.20
2023-05-11T07:07:03.914Z,2.50
2023-05-11T07:12:05.842Z,2.63
2023-05-11T07:17:07.466Z,2.10
2023-05-11T07:22:09.060Z,2.10
2023-05-11T07:27:11.377Z,2.00
2023-05-11T07:32:13.208Z,2.38
2023-05-11T07:37:20.526Z,2.13
2023-05-11T07:42:22.088Z,1.88
2023-05-11T07:47:24.876Z,2.05
2023-05-11T07:52:26.799Z,2.50
2023-05-11T07:57:28.420Z,2.33
2023-05-11T08:02:30.428Z,2.45
2023-05-11T08:07:32.065Z,1.80
2023-05-11T08:12:33.901Z,2.33
2023-05-11T08:17:38.569Z,2.35
2023-05-11T08:22:40.230Z,2.25
2023-05-11T08:27:50.612Z,2.35
2023-05-11T08:32:58.668Z,2.40
2023-05-11T08:38:01.509Z,2.33
2023-05-11T08:43:05.810Z,2.03
2023-05-11T08:48:07.594Z,2.47
2023-05-11T08:53:09.199Z,2.30
2023-05-11T08:58:12.398Z,2.65
2023-05-11T09:03:14.805Z,2.35
2023-05-11T09:08:19.012Z,2.20
2023-05-11T09:13:27.307Z,2.00
2023-05-11T09:18:30.141Z,2.15
2023-05-11T09:23:32.240Z,2.13
2023-05-11T09:33:47.586Z,2.08
2023-05-11T09:38:49.197Z,2.22
2023-05-11T09:43:50.913Z,2.33
2023-05-11T09:49:00.468Z,1.90
2023-05-11T09:54:15.009Z,2.40
2023-05-11T09:59:41.370Z,2.40
2023-05-11T10:04:43.025Z,1.85
2023-05-11T10:09:45.903Z,2.50
2023-05-11T10:14:49.366Z,2.60
2023-05-11T10:19:54.392Z,2.42
2023-05-11T10:24:59.858Z,2.50
2023-05-11T10:30:03.881Z,2.15
2023-05-11T10:35:06.846Z,2.17
2023-05-11T10:40:09.723Z,2.28
2023-05-11T10:45:29.846Z,2.10
2023-05-11T10:51:09.106Z,2.30
2023-05-11T10:56:20.005Z,2.42
2023-05-11T11:01:39.559Z,1.90
2023-05-11T11:11:47.978Z,2.55
2023-05-11T11:17:21.328Z,2.30
2023-05-11T11:22:35.399Z,2.40
2023-05-11T11:27:44.600Z,2.05
2023-05-11T11:32:48.439Z,2.42
2023-05-11T11:38:03.586Z,2.30
2023-05-11T11:43:18.144Z,2.25
2023-05-11T11:48:29.374Z,1.88
2023-05-11T11:53:44.630Z,2.20
2023-05-11T11:58:46.648Z,1.90
2023-05-11T12:04:11.217Z,2.20
2023-05-11T12:09:18.345Z,2.15
2023-05-11T12:14:21.645Z,2.30
2023-05-11T12:19:24.642Z,2.30
2023-05-11T12:24:26.913Z,2.30
2023-05-11T12:29:28.501Z,2.70
2023-05-11T12:34:32.678Z,2.40
2023-05-11T12:39:36.221Z,2.00
2023-05-11T12:44:37.904Z,2.25
2023-05-11T12:49:56.791Z,1.92
2023-05-11T12:55:00.785Z,2.27
2023-05-11T13:00:15.848Z,2.10
2023-05-11T13:05:19.967Z,1.90
2023-05-11T13:10:25.510Z,2.53
2023-05-11T13:15:28.682Z,2.97
2023-05-11T13:20:33.847Z,2.20
2023-05-11T13:25:55.024Z,2.00
2023-05-11T13:31:01.939Z,2.40
2023-05-11T13:36:03.857Z,2.25
2023-05-11T13:41:06.786Z,2.30
2023-05-11T13:46:08.400Z,2.38
2023-05-11T13:51:09.982Z,3.00
2023-05-11T13:56:11.912Z,2.80
2023-05-11T14:01:13.549Z,2.10
2023-05-11T14:06:15.269Z,2.38
2023-05-11T14:11:17.242Z,2.63
2023-05-11T14:16:20.858Z,2.38
2023-05-11T14:21:22.615Z,2.40
2023-05-11T14:26:24.273Z,2.97
2023-05-11T14:31:26.157Z,2.00
2023-05-11T14:36:28.115Z,2.13
2023-05-11T14:41:30.541Z,2.17
2023-05-11T14:46:32.369Z,2.05
2023-05-11T14:51:34.117Z,2.08
2023-05-11T14:56:36.292Z,2.13
2023-05-11T15:01:38.053Z,2.40
2023-05-11T15:06:39.812Z,2.00
2023-05-11T15:11:41.448Z,1.75
2023-05-11T15:16:43.141Z,1.73
2023-05-11T15:21:56.778Z,1.63
2023-05-11T15:26:58.546Z,1.42
2023-05-11T15:32:00.245Z,1.58
2023-05-11T15:37:01.906Z,1.30
2023-05-11T15:42:04.007Z,1.30
2023-05-11T15:47:06.158Z,1.30
2023-05-11T15:52:08.304Z,1.33
2023-05-11T15:57:09.960Z,1.42
2023-05-11T16:02:11.884Z,1.13
2023-05-11T16:07:13.710Z,1.00
2023-05-11T16:12:15.365Z,0.93
2023-05-11T16:17:17.092Z,1.20
2023-05-11T16:22:18.775Z,0.93
2023-05-11T16:27:20.577Z,0.93
2023-05-11T16:32:22.163Z,0.85
2023-05-11T16:37:27.014Z,1.00
2023-05-11T16:42:28.617Z,1.30
2023-05-11T16:47:33.057Z,1.15
2023-05-11T16:52:34.662Z,0.93
2023-05-11T16:57:36.342Z,0.90
2023-05-11T17:02:38.029Z,1.20
2023-05-11T17:07:39.912Z,0.90
2023-05-11T17:12:41.717Z,0.75
2023-05-11T17:17:44.859Z,0.90
2023-05-11T17:22:47.211Z,0.60
2023-05-11T17:27:49.197Z,1.00
2023-05-11T17:32:51.981Z,0.80
2023-05-11T17:37:53.816Z,1.02
2023-05-11T17:42:55.713Z,0.90
2023-05-11T17:47:57.323Z,1.10
2023-05-11T17:53:02.939Z,1.20
2023-05-11T17:58:04.559Z,1.35
2023-05-11T18:03:08.988Z,1.02
2023-05-11T18:08:10.661Z,1.15
2023-05-11T18:13:13.119Z,1.00
2023-05-11T18:18:15.038Z,1.27
2023-05-11T18:23:16.577Z,1.13
2023-05-11T18:28:20.861Z,1.17
2023-05-11T18:33:22.642Z,1.10
2023-05-11T18:38:24.296Z,0.95
2023-05-11T18:43:25.897Z,1.40
2023-05-11T18:48:27.457Z,1.30
2023-05-11T18:53:33.483Z,1.73
2023-05-11T18:58:35.030Z,1.50
2023-05-11T19:03:36.613Z,1.60
2023-05-11T19:08:38.236Z,1.48
2023-05-11T19:13:40.558Z,1.45
2023-05-11T19:18:42.260Z,1.85
2023-05-11T19:23:43.844Z,1.70
2023-05-11T19:28:45.447Z,2.05
2023-05-11T19:33:50.982Z,1.80
2023-05-11T19:38:52.694Z,1.83
2023-05-11T19:43:54.474Z,2.28
2023-05-11T19:48:56.398Z,2.30
2023-05-11T19:54:03.119Z,2.50
2023-05-11T19:59:04.923Z,2.50
2023-05-11T20:04:06.518Z,2.40
2023-05-11T20:09:08.263Z,1.85
2023-05-11T20:14:09.841Z,2.10
2023-05-11T20:19:15.231Z,2.17
2023-05-11T20:24:16.796Z,2.30
2023-05-11T20:29:18.392Z,2.13
2023-05-11T20:34:20.033Z,2.42
2023-05-11T20:39:22.013Z,2.40
2023-05-11T20:44:23.634Z,3.22
2023-05-11T20:49:37.412Z,3.30
2023-05-11T20:54:40.335Z,3.50
2023-05-11T21:04:46.915Z,4.13
2023-05-11T21:09:48.709Z,4.88
2023-05-11T21:14:50.453Z,5.15
2023-05-11T21:19:52.173Z,5.03
2023-05-11T21:24:53.831Z,4.70
2023-05-11T21:29:56.428Z,4.10
2023-05-11T21:34:58.110Z,4.07
2023-05-11T21:40:00.545Z,4.47
2023-05-11T21:45:02.962Z,4.32
2023-05-11T21:50:09.531Z,4.78
2023-05-11T21:55:11.167Z,5.47
2023-05-11T22:00:18.587Z,5.35
2023-05-11T22:05:20.824Z,5.40
2023-05-11T22:10:23.258Z,5.40
2023-05-11T22:15:25.025Z,5.70
2023-05-11T22:20:33.224Z,5.13
2023-05-11T22:25:34.864Z,6.00
2023-05-11T22:30:37.733Z,5.32
2023-05-11T22:35:39.904Z,5.85
2023-05-11T22:40:41.576Z,6.50
2023-05-11T22:45:43.260Z,6.13
2023-05-11T22:50:47.598Z,4.45
2023-05-11T22:55:49.249Z,4.15
2023-05-11T23:00:54.652Z,4.68
2023-05-11T23:05:56.616Z,4.28
2023-05-11T23:10:58.208Z,4.47
2023-05-11T23:15:59.984Z,4.68
2023-05-11T23:21:01.810Z,5.88
2023-05-11T23:26:03.476Z,6.40
2023-05-11T23:31:05.186Z,6.60
2023-05-11T23:36:07.607Z,6.22
2023-05-11T23:41:09.309Z,8.25
2023-05-11T23:46:11.192Z,9.38
2023-05-11T23:51:13.224Z,11.52
2023-05-11T23:56:15.228Z,11.10
